createdAt,value
2018-03-31T00:00:01.446Z,20.20
2018-03-31T00:01:06.175Z,20.20
2018-03-31T00:02:11.134Z,20.20
2018-03-31T00:03:16.281Z,20.20
2018-03-31T00:04:21.096Z,20.20
2018-03-31T00:05:25.980Z,20.20
2018-03-31T00:06:30.721Z,20.20
2018-03-31T00:07:35.528Z,20.20
2018-03-31T00:08:40.559Z,20.20
2018-03-31T00:09:45.640Z,20.20
2018-03-31T00:10:50.410Z,20.20
2018-03-31T00:11:55.434Z,20.20
2018-03-31T00:13:00.300Z,20.20
2018-03-31T00:14:05.264Z,20.20
2018-03-31T00:15:10.351Z,20.20
2018-03-31T00:16:15.166Z,20.20
2018-03-31T00:17:20.167Z,20.20
2018-03-31T00:18:25.084Z,20.20
2018-03-31T00:19:30.259Z,20.20
2018-03-31T00:20:35.232Z,20.20
2018-03-31T00:21:40.054Z,20.20
2018-03-31T00:22:44.975Z,20.20
2018-03-31T00:23:49.946Z,20.20
2018-03-31T00:24:54.666Z,20.20
2018-03-31T00:25:59.690Z,20.20
2018-03-31T00:27:04.482Z,20.20
2018-03-31T00:28:09.321Z,20.20
2018-03-31T00:29:14.158Z,20.20
2018-03-31T00:30:18.903Z,20.20
2018-03-31T00:31:23.703Z,20.20
2018-03-31T00:32:28.552Z,20.20
2018-03-31T00:33:34.234Z,20.20
2018-03-31T00:34:41.000Z,20.20
2018-03-31T00:35:45.841Z,20.20
2018-03-31T00:36:50.483Z,20.20
2018-03-31T00:37:55.520Z,20.20
2018-03-31T00:39:00.337Z,20.20
2018-03-31T00:40:05.216Z,20.20
2018-03-31T00:41:10.192Z,20.20
2018-03-31T00:42:15.074Z,20.20
2018-03-31T00:43:19.874Z,20.20
2018-03-31T00:44:24.703Z,20.20
2018-03-31T00:45:29.578Z,20.20
2018-03-31T00:46:34.364Z,20.20
2018-03-31T00:47:39.185Z,20.20
2018-03-31T00:48:44.162Z,20.20
2018-03-31T00:49:49.193Z,20.20
2018-03-31T00:50:53.958Z,20.20
2018-03-31T00:51:58.901Z,20.20
2018-03-31T00:53:03.976Z,20.20
2018-03-31T00:54:08.804Z,20.20
2018-03-31T00:55:13.691Z,20.20
2018-03-31T00:56:18.579Z,20.20
2018-03-31T00:57:23.486Z,20.20
2018-03-31T00:58:28.544Z,20.20
2018-03-31T00:59:33.502Z,20.20
2018-03-31T01:00:38.655Z,20.20
2018-03-31T01:01:43.580Z,20.20
2018-03-31T01:02:48.556Z,20.20
2018-03-31T01:03:53.411Z,20.20
2018-03-31T01:04:58.244Z,20.20
2018-03-31T01:06:03.139Z,20.20
2018-03-31T01:07:08.179Z,20.20
2018-03-31T01:08:12.968Z,20.20
2018-03-31T01:09:17.701Z,20.20
2018-03-31T01:10:22.616Z,20.20
2018-03-31T01:11:27.499Z,20.20
2018-03-31T01:12:32.617Z,20.20
2018-03-31T01:13:37.393Z,20.20
2018-03-31T01:14:42.364Z,20.20
2018-03-31T01:15:47.617Z,20.20
2018-03-31T01:16:52.607Z,20.20
2018-03-31T01:17:57.427Z,20.20
2018-03-31T01:19:02.471Z,20.20
2018-03-31T01:20:07.471Z,20.20
2018-03-31T01:21:12.481Z,20.20
2018-03-31T01:22:17.509Z,20.20
2018-03-31T01:23:22.402Z,20.20
2018-03-31T01:24:27.198Z,20.20
2018-03-31T01:25:32.057Z,20.20
2018-03-31T01:26:36.703Z,20.20
2018-03-31T01:27:41.624Z,20.20
2018-03-31T01:28:46.336Z,20.20
2018-03-31T01:29:51.251Z,20.20
2018-03-31T01:30:56.148Z,20.20
2018-03-31T01:32:01.127Z,20.20
2018-03-31T01:33:05.945Z,20.30
2018-03-31T01:34:10.964Z,20.20
2018-03-31T01:35:15.930Z,20.20
2018-03-31T01:36:32.911Z,20.20
2018-03-31T01:37:37.889Z,20.20
2018-03-31T01:38:43.030Z,20.20
2018-03-31T01:39:47.874Z,20.20
2018-03-31T01:40:52.885Z,20.20
2018-03-31T01:41:57.856Z,20.20
2018-03-31T01:43:03.039Z,20.20
2018-03-31T01:44:08.184Z,20.20
2018-03-31T01:45:13.003Z,20.20
2018-03-31T01:46:17.816Z,20.20
2018-03-31T01:47:22.797Z,20.20
2018-03-31T01:48:27.765Z,20.20
2018-03-31T01:49:32.808Z,20.20
2018-03-31T01:50:37.844Z,20.20
2018-03-31T01:51:43.159Z,20.20
2018-03-31T01:52:48.057Z,20.20
2018-03-31T01:53:52.874Z,20.20
2018-03-31T01:54:57.735Z,20.20
2018-03-31T01:56:02.908Z,20.20
2018-03-31T01:57:07.862Z,20.20
2018-03-31T01:58:12.966Z,20.20
2018-03-31T01:59:18.012Z,20.20
2018-03-31T02:00:22.850Z,20.20
2018-03-31T02:01:27.795Z,20.20
2018-03-31T02:02:32.656Z,20.20
2018-03-31T02:03:37.495Z,20.20
2018-03-31T02:04:42.605Z,20.20
2018-03-31T02:05:47.480Z,20.20
2018-03-31T02:06:52.521Z,20.20
2018-03-31T02:07:57.411Z,20.20
2018-03-31T02:09:02.187Z,20.20
2018-03-31T02:10:06.892Z,20.20
2018-03-31T02:11:11.668Z,20.20
2018-03-31T02:12:16.529Z,20.20
2018-03-31T02:13:21.596Z,20.20
2018-03-31T02:14:26.448Z,20.20
2018-03-31T02:15:31.441Z,20.20
2018-03-31T02:16:36.525Z,20.20
2018-03-31T02:17:41.595Z,20.20
2018-03-31T02:18:46.465Z,20.30
2018-03-31T02:19:51.493Z,20.20
2018-03-31T02:20:56.285Z,20.30
2018-03-31T02:22:01.318Z,20.20
2018-03-31T02:23:06.292Z,20.20
2018-03-31T02:24:11.193Z,20.20
2018-03-31T02:25:16.107Z,20.20
2018-03-31T02:26:20.819Z,20.20
2018-03-31T02:27:25.762Z,20.20
2018-03-31T02:28:30.550Z,20.20
2018-03-31T02:29:35.470Z,20.20
2018-03-31T02:30:40.518Z,20.20
2018-03-31T02:31:45.251Z,20.20
2018-03-31T02:32:50.259Z,20.20
2018-03-31T02:33:55.102Z,20.20
2018-03-31T02:35:00.051Z,20.20
2018-03-31T02:36:04.768Z,20.20
2018-03-31T02:37:09.564Z,20.20
2018-03-31T02:38:14.302Z,20.30
2018-03-31T02:39:19.170Z,20.20
2018-03-31T02:40:24.032Z,20.20
2018-03-31T02:41:28.923Z,20.20
2018-03-31T02:42:33.978Z,20.30
2018-03-31T02:43:38.848Z,20.20
2018-03-31T02:44:43.888Z,20.20
2018-03-31T02:45:48.814Z,20.20
2018-03-31T02:46:53.753Z,20.20
2018-03-31T02:47:58.659Z,20.20
2018-03-31T02:49:03.616Z,20.20
2018-03-31T02:50:08.340Z,20.20
2018-03-31T02:51:13.337Z,20.30
2018-03-31T02:52:18.141Z,20.20
2018-03-31T02:53:22.936Z,20.20
2018-03-31T02:54:27.793Z,20.20
2018-03-31T02:55:32.646Z,20.20
2018-03-31T02:56:37.358Z,20.20
2018-03-31T02:57:42.344Z,20.20
2018-03-31T02:58:47.246Z,20.20
2018-03-31T02:59:52.214Z,20.20
2018-03-31T03:00:56.974Z,20.20
2018-03-31T03:02:01.776Z,20.20
2018-03-31T03:03:06.828Z,20.20
2018-03-31T03:04:11.813Z,20.20
2018-03-31T03:05:16.621Z,20.20
2018-03-31T03:06:21.842Z,20.30
2018-03-31T03:07:26.812Z,20.20
2018-03-31T03:08:31.874Z,20.20
2018-03-31T03:09:37.012Z,20.20
2018-03-31T03:10:42.037Z,20.20
2018-03-31T03:11:47.037Z,20.20
2018-03-31T03:12:51.989Z,20.20
2018-03-31T03:13:57.126Z,20.20
2018-03-31T03:15:02.121Z,20.20
2018-03-31T03:16:07.122Z,20.20
2018-03-31T03:17:12.050Z,20.20
2018-03-31T03:18:20.082Z,20.20
2018-03-31T03:19:25.228Z,20.20
2018-03-31T03:20:29.901Z,20.20
2018-03-31T03:21:34.728Z,20.20
2018-03-31T03:22:39.591Z,20.10
2018-03-31T03:23:44.479Z,20.20
2018-03-31T03:24:50.365Z,20.20
2018-03-31T03:25:55.155Z,20.30
2018-03-31T03:27:00.154Z,20.20
2018-03-31T03:28:04.948Z,20.20
2018-03-31T03:29:09.837Z,20.20
2018-03-31T03:30:14.795Z,20.20
2018-03-31T03:31:19.620Z,20.20
2018-03-31T03:32:24.643Z,20.20
2018-03-31T03:33:29.613Z,20.20
2018-03-31T03:34:34.753Z,20.20
2018-03-31T03:35:39.700Z,20.20
2018-03-31T03:36:44.525Z,20.20
2018-03-31T03:37:49.477Z,20.30
2018-03-31T03:38:54.432Z,20.20
2018-03-31T03:39:59.210Z,20.20
2018-03-31T03:41:06.970Z,20.20
2018-03-31T03:42:12.119Z,20.20
2018-03-31T03:43:17.094Z,20.20
2018-03-31T03:44:21.800Z,20.20
2018-03-31T03:45:26.863Z,20.30
2018-03-31T03:46:31.748Z,20.20
2018-03-31T03:47:36.576Z,20.20
2018-03-31T03:48:41.482Z,20.20
2018-03-31T03:49:46.313Z,20.20
2018-03-31T03:50:51.221Z,20.20
2018-03-31T03:51:56.130Z,20.20
2018-03-31T03:53:00.993Z,20.20
2018-03-31T03:54:05.790Z,20.30
2018-03-31T03:55:10.786Z,20.20
2018-03-31T03:56:15.640Z,20.20
2018-03-31T03:57:20.443Z,20.30
2018-03-31T03:58:25.580Z,20.20
2018-03-31T03:59:30.285Z,20.20
2018-03-31T04:00:35.345Z,20.20
2018-03-31T04:01:40.139Z,20.20
2018-03-31T04:02:45.071Z,20.20
2018-03-31T04:03:49.955Z,20.20
2018-03-31T04:04:54.853Z,20.30
2018-03-31T04:05:59.598Z,20.20
2018-03-31T04:07:04.618Z,20.20
2018-03-31T04:08:09.518Z,20.20
2018-03-31T04:09:14.352Z,20.20
2018-03-31T04:10:19.399Z,20.20
2018-03-31T04:11:24.231Z,20.20
2018-03-31T04:12:29.264Z,20.20
2018-03-31T04:13:34.409Z,20.20
2018-03-31T04:14:39.158Z,20.30
2018-03-31T04:15:44.217Z,20.30
2018-03-31T04:16:49.099Z,20.30
2018-03-31T04:17:53.988Z,20.20
2018-03-31T04:18:59.004Z,20.20
2018-03-31T04:20:03.987Z,20.20
2018-03-31T04:21:08.853Z,20.20
2018-03-31T04:22:13.736Z,20.20
2018-03-31T04:23:18.453Z,20.20
2018-03-31T04:24:23.355Z,20.30
2018-03-31T04:25:28.205Z,20.30
2018-03-31T04:26:33.211Z,20.30
2018-03-31T04:27:38.118Z,20.30
2018-03-31T04:28:43.128Z,20.30
2018-03-31T04:29:47.896Z,20.30
2018-03-31T04:30:53.090Z,20.30
2018-03-31T04:31:58.019Z,20.30
2018-03-31T04:33:03.036Z,20.30
2018-03-31T04:34:07.919Z,20.30
2018-03-31T04:35:12.962Z,20.30
2018-03-31T04:36:17.714Z,20.30
2018-03-31T04:37:22.323Z,20.20
2018-03-31T04:38:27.164Z,20.20
2018-03-31T04:39:31.760Z,20.20
2018-03-31T04:40:36.691Z,20.20
2018-03-31T04:41:41.490Z,20.20
2018-03-31T04:42:46.279Z,20.20
2018-03-31T04:43:51.296Z,20.20
2018-03-31T04:44:56.161Z,20.10
2018-03-31T04:46:01.180Z,20.20
2018-03-31T04:47:06.209Z,20.20
2018-03-31T04:48:11.185Z,20.20
2018-03-31T04:49:16.238Z,20.20
2018-03-31T04:50:21.027Z,20.10
2018-03-31T04:51:25.906Z,20.10
2018-03-31T04:52:30.653Z,20.10
2018-03-31T04:53:35.599Z,20.20
2018-03-31T04:54:40.578Z,20.20
2018-03-31T04:55:45.547Z,20.10
2018-03-31T04:56:50.368Z,20.20
2018-03-31T04:57:55.283Z,20.10
2018-03-31T04:59:00.476Z,19.90
2018-03-31T05:00:05.207Z,19.90
2018-03-31T05:01:10.072Z,19.80
2018-03-31T05:02:14.960Z,19.70
2018-03-31T05:03:19.772Z,19.60
2018-03-31T05:04:24.934Z,19.50
2018-03-31T05:05:29.962Z,19.50
2018-03-31T05:06:35.236Z,19.50
2018-03-31T05:07:40.173Z,19.40
2018-03-31T05:08:45.049Z,19.30
2018-03-31T05:09:49.833Z,19.30
2018-03-31T05:10:54.678Z,19.20
2018-03-31T05:11:59.442Z,19.20
2018-03-31T05:13:04.210Z,19.20
2018-03-31T05:14:09.060Z,19.20
2018-03-31T05:15:14.299Z,19.10
2018-03-31T05:16:19.331Z,19.10
2018-03-31T05:17:24.449Z,19.10
2018-03-31T05:18:29.510Z,19.10
2018-03-31T05:19:34.337Z,19.00
2018-03-31T05:20:39.374Z,19.00
2018-03-31T05:21:44.185Z,19.00
2018-03-31T05:22:49.470Z,19.00
2018-03-31T05:23:54.246Z,19.00
2018-03-31T05:24:59.222Z,18.90
2018-03-31T05:26:04.426Z,18.90
2018-03-31T05:27:09.482Z,18.90
2018-03-31T05:28:14.476Z,18.90
2018-03-31T05:29:19.343Z,18.90
2018-03-31T05:30:24.308Z,18.90
2018-03-31T05:31:29.324Z,18.80
2018-03-31T05:32:34.253Z,18.80
2018-03-31T05:33:40.178Z,18.80
2018-03-31T05:34:45.152Z,18.80
2018-03-31T05:35:50.014Z,18.80
2018-03-31T05:36:54.689Z,18.80
2018-03-31T05:37:59.579Z,18.80
2018-03-31T05:39:04.485Z,18.80
2018-03-31T05:40:09.436Z,18.70
2018-03-31T05:41:14.478Z,18.70
2018-03-31T05:42:19.386Z,18.70
2018-03-31T05:43:24.323Z,18.70
2018-03-31T05:44:29.111Z,18.70
2018-03-31T05:45:37.073Z,18.70
2018-03-31T05:46:41.865Z,18.70
2018-03-31T05:47:46.823Z,18.60
2018-03-31T05:48:51.930Z,18.60
2018-03-31T05:49:56.809Z,18.60
2018-03-31T05:51:01.694Z,18.60
2018-03-31T05:52:06.565Z,18.60
2018-03-31T05:53:11.250Z,18.60
2018-03-31T05:54:16.497Z,18.60
2018-03-31T05:55:21.344Z,18.60
2018-03-31T05:56:26.457Z,18.50
2018-03-31T05:57:31.243Z,18.50
2018-03-31T05:58:36.640Z,18.50
2018-03-31T05:59:41.428Z,18.60
2018-03-31T06:00:46.315Z,18.60
2018-03-31T06:01:51.196Z,18.60
2018-03-31T06:02:56.250Z,18.70
2018-03-31T06:04:00.971Z,18.70
2018-03-31T06:05:05.876Z,18.80
2018-03-31T06:06:10.908Z,18.90
2018-03-31T06:07:15.658Z,18.90
2018-03-31T06:08:20.578Z,18.90
2018-03-31T06:09:25.608Z,18.90
2018-03-31T06:10:30.499Z,19.00
2018-03-31T06:11:35.373Z,19.00
2018-03-31T06:12:41.546Z,19.10
2018-03-31T06:13:46.436Z,19.10
2018-03-31T06:14:51.391Z,19.10
2018-03-31T06:15:56.243Z,19.20
2018-03-31T06:17:01.852Z,19.20
2018-03-31T06:18:06.613Z,19.20
2018-03-31T06:19:11.354Z,19.30
2018-03-31T06:20:16.373Z,19.30
2018-03-31T06:21:21.431Z,19.30
2018-03-31T06:22:26.374Z,19.30
2018-03-31T06:23:31.255Z,19.40
2018-03-31T06:24:36.125Z,19.40
2018-03-31T06:25:40.984Z,19.40
2018-03-31T06:26:46.033Z,19.40
2018-03-31T06:27:50.855Z,19.50
2018-03-31T06:28:55.728Z,19.50
2018-03-31T06:30:00.987Z,19.50
2018-03-31T06:31:05.916Z,19.50
2018-03-31T06:32:10.681Z,19.60
2018-03-31T06:33:15.747Z,19.60
2018-03-31T06:34:20.668Z,19.60
2018-03-31T06:35:25.600Z,19.60
2018-03-31T06:36:30.608Z,19.60
2018-03-31T06:37:35.256Z,19.60
2018-03-31T06:38:40.143Z,19.70
2018-03-31T06:39:44.993Z,19.70
2018-03-31T06:40:50.041Z,19.70
2018-03-31T06:41:54.896Z,19.70
2018-03-31T06:42:59.680Z,19.70
2018-03-31T06:44:04.464Z,19.70
2018-03-31T06:45:09.300Z,19.70
2018-03-31T06:46:14.192Z,19.80
2018-03-31T06:47:19.200Z,19.80
2018-03-31T06:48:24.220Z,19.80
2018-03-31T06:49:29.255Z,19.90
2018-03-31T06:50:33.995Z,19.80
2018-03-31T06:51:39.005Z,19.80
2018-03-31T06:52:43.971Z,19.80
2018-03-31T06:53:48.943Z,19.90
2018-03-31T06:54:54.050Z,19.90
2018-03-31T06:55:58.795Z,19.90
2018-03-31T06:57:03.708Z,19.90
2018-03-31T06:58:08.780Z,19.90
2018-03-31T06:59:13.962Z,19.90
2018-03-31T07:00:18.868Z,20.00
2018-03-31T07:01:23.747Z,20.00
2018-03-31T07:02:28.636Z,20.00
2018-03-31T07:03:33.760Z,20.00
2018-03-31T07:04:38.525Z,20.00
2018-03-31T07:05:43.514Z,20.00
2018-03-31T07:06:48.588Z,20.00
2018-03-31T07:07:53.436Z,20.00
2018-03-31T07:08:58.392Z,20.00
2018-03-31T07:10:03.366Z,20.00
2018-03-31T07:11:08.173Z,20.00
2018-03-31T07:12:13.155Z,20.10
2018-03-31T07:13:18.355Z,20.10
2018-03-31T07:14:23.268Z,20.10
2018-03-31T07:15:28.354Z,20.10
2018-03-31T07:16:33.108Z,20.10
2018-03-31T07:17:38.044Z,20.00
2018-03-31T07:18:43.631Z,20.10
2018-03-31T07:19:48.780Z,20.10
2018-03-31T07:20:53.930Z,20.00
2018-03-31T07:21:58.916Z,20.10
2018-03-31T07:23:03.891Z,20.10
2018-03-31T07:24:08.794Z,20.10
2018-03-31T07:25:13.782Z,20.10
2018-03-31T07:26:18.756Z,20.10
2018-03-31T07:27:23.696Z,20.00
2018-03-31T07:28:28.681Z,20.10
2018-03-31T07:29:33.590Z,20.00
2018-03-31T07:30:38.628Z,20.10
2018-03-31T07:31:43.616Z,20.10
2018-03-31T07:32:48.640Z,20.10
2018-03-31T07:33:53.453Z,20.10
2018-03-31T07:34:58.613Z,20.10
2018-03-31T07:36:03.526Z,20.10
2018-03-31T07:37:08.403Z,20.10
2018-03-31T07:38:13.442Z,20.10
2018-03-31T07:39:18.320Z,20.10
2018-03-31T07:40:23.363Z,20.10
2018-03-31T07:41:28.210Z,20.10
2018-03-31T07:42:33.178Z,20.10
2018-03-31T07:43:37.997Z,20.10
2018-03-31T07:44:42.961Z,20.10
2018-03-31T07:45:47.620Z,20.10
2018-03-31T07:46:52.842Z,20.10
2018-03-31T07:47:57.715Z,20.10
2018-03-31T07:49:02.560Z,20.10
2018-03-31T07:50:07.204Z,20.10
2018-03-31T07:51:11.998Z,20.20
2018-03-31T07:52:16.943Z,20.20
2018-03-31T07:53:21.888Z,20.20
2018-03-31T07:54:26.543Z,20.20
2018-03-31T07:55:31.469Z,20.20
2018-03-31T07:56:36.223Z,20.20
2018-03-31T07:57:41.353Z,20.20
2018-03-31T07:58:46.218Z,20.20
2018-03-31T07:59:51.221Z,20.20
2018-03-31T08:00:56.221Z,20.20
2018-03-31T08:02:01.110Z,20.20
2018-03-31T08:03:06.042Z,20.20
2018-03-31T08:04:10.974Z,20.30
2018-03-31T08:05:15.944Z,20.20
2018-03-31T08:06:20.794Z,20.20
2018-03-31T08:07:25.843Z,20.30
2018-03-31T08:08:30.864Z,20.30
2018-03-31T08:09:35.911Z,20.30
2018-03-31T08:10:40.755Z,20.20
2018-03-31T08:11:45.768Z,20.30
2018-03-31T08:12:50.700Z,20.30
2018-03-31T08:13:55.621Z,20.30
2018-03-31T08:15:00.850Z,20.30
2018-03-31T08:16:05.648Z,20.30
2018-03-31T08:17:10.568Z,20.30
2018-03-31T08:18:15.561Z,20.30
2018-03-31T08:19:20.484Z,20.30
2018-03-31T08:20:25.484Z,20.40
2018-03-31T08:21:30.494Z,20.40
2018-03-31T08:22:35.378Z,20.40
2018-03-31T08:23:40.345Z,20.50
2018-03-31T08:24:45.254Z,20.50
2018-03-31T08:25:50.308Z,20.50
2018-03-31T08:26:54.969Z,20.50
2018-03-31T08:27:59.761Z,20.50
2018-03-31T08:29:04.614Z,20.50
2018-03-31T08:30:09.365Z,20.50
2018-03-31T08:31:14.388Z,20.50
2018-03-31T08:32:19.148Z,20.50
2018-03-31T08:33:24.122Z,20.40
2018-03-31T08:34:29.320Z,20.40
2018-03-31T08:35:34.558Z,20.40
2018-03-31T08:36:39.476Z,20.40
2018-03-31T08:37:44.384Z,20.40
2018-03-31T08:38:49.391Z,20.40
2018-03-31T08:39:54.378Z,20.40
2018-03-31T08:40:59.513Z,20.40
2018-03-31T08:42:04.380Z,20.30
2018-03-31T08:43:09.402Z,20.30
2018-03-31T08:44:14.340Z,20.30
2018-03-31T08:45:19.311Z,20.30
2018-03-31T08:46:24.281Z,20.30
2018-03-31T08:47:29.871Z,20.30
2018-03-31T08:48:34.819Z,20.30
2018-03-31T08:49:39.942Z,20.30
2018-03-31T08:50:44.967Z,20.30
2018-03-31T08:51:49.927Z,20.30
2018-03-31T08:52:54.834Z,20.30
2018-03-31T08:53:59.694Z,20.30
2018-03-31T08:55:05.201Z,20.30
2018-03-31T08:56:10.674Z,20.40
2018-03-31T08:57:15.535Z,20.40
2018-03-31T08:58:20.416Z,20.30
2018-03-31T08:59:25.455Z,20.30
2018-03-31T09:00:30.459Z,20.40
2018-03-31T09:01:35.357Z,20.30
2018-03-31T09:02:40.000Z,20.30
2018-03-31T09:03:44.944Z,20.30
2018-03-31T09:04:49.702Z,20.30
2018-03-31T09:05:54.649Z,20.30
2018-03-31T09:06:59.645Z,20.20
2018-03-31T09:08:04.554Z,20.30
2018-03-31T09:09:09.683Z,20.30
2018-03-31T09:10:14.552Z,20.30
2018-03-31T09:11:19.639Z,20.30
2018-03-31T09:12:24.616Z,20.30
2018-03-31T09:13:29.573Z,20.30
2018-03-31T09:14:34.505Z,20.30
2018-03-31T09:15:39.493Z,20.30
2018-03-31T09:16:44.253Z,20.30
2018-03-31T09:17:49.295Z,20.30
2018-03-31T09:18:54.323Z,20.30
2018-03-31T09:19:59.267Z,20.30
2018-03-31T09:21:04.299Z,20.30
2018-03-31T09:22:09.188Z,20.30
2018-03-31T09:23:14.082Z,20.30
2018-03-31T09:24:18.810Z,20.30
2018-03-31T09:25:23.441Z,20.20
2018-03-31T09:26:28.493Z,20.30
2018-03-31T09:27:33.590Z,20.20
2018-03-31T09:28:38.309Z,20.20
2018-03-31T09:29:45.005Z,20.20
2018-03-31T09:30:49.650Z,20.20
2018-03-31T09:31:54.501Z,20.20
2018-03-31T09:32:59.298Z,20.20
2018-03-31T09:34:04.306Z,20.20
2018-03-31T09:35:09.020Z,20.30
2018-03-31T09:36:14.035Z,20.20
2018-03-31T09:37:18.914Z,20.20
2018-03-31T09:38:23.759Z,20.20
2018-03-31T09:39:28.812Z,20.20
2018-03-31T09:40:33.761Z,20.20
2018-03-31T09:41:38.834Z,20.20
2018-03-31T09:42:43.634Z,20.20
2018-03-31T09:43:48.516Z,20.20
2018-03-31T09:44:53.450Z,20.20
2018-03-31T09:45:58.562Z,20.30
2018-03-31T09:47:03.398Z,20.20
2018-03-31T09:48:08.291Z,20.30
2018-03-31T09:49:12.935Z,20.20
2018-03-31T09:50:18.656Z,20.20
2018-03-31T09:51:23.494Z,20.20
2018-03-31T09:52:28.122Z,20.20
2018-03-31T09:53:32.678Z,20.20
2018-03-31T09:54:37.656Z,20.10
2018-03-31T09:55:43.225Z,20.10
2018-03-31T09:56:47.842Z,19.90
2018-03-31T09:57:52.718Z,19.90
2018-03-31T09:58:57.788Z,19.80
2018-03-31T10:00:02.711Z,19.70
2018-03-31T10:01:07.499Z,19.70
2018-03-31T10:02:12.361Z,19.60
2018-03-31T10:03:17.389Z,19.50
2018-03-31T10:04:22.191Z,19.50
2018-03-31T10:05:26.927Z,19.40
2018-03-31T10:06:31.979Z,19.40
2018-03-31T10:07:37.128Z,19.40
2018-03-31T10:08:41.934Z,19.50
2018-03-31T10:09:46.856Z,19.50
2018-03-31T10:10:51.726Z,19.60
2018-03-31T10:11:57.042Z,19.70
2018-03-31T10:13:01.914Z,19.70
2018-03-31T10:14:06.975Z,19.80
2018-03-31T10:15:11.795Z,19.80
2018-03-31T10:16:17.325Z,19.90
2018-03-31T10:17:22.091Z,20.00
2018-03-31T10:18:26.918Z,19.90
2018-03-31T10:19:31.694Z,20.00
2018-03-31T10:20:36.556Z,20.00
2018-03-31T10:21:41.611Z,20.00
2018-03-31T10:22:46.721Z,20.00
2018-03-31T10:23:51.354Z,20.00
2018-03-31T10:24:56.323Z,20.00
2018-03-31T10:26:01.851Z,20.00
2018-03-31T10:27:06.933Z,20.00
2018-03-31T10:28:11.952Z,20.00
2018-03-31T10:29:16.845Z,20.00
2018-03-31T10:30:21.516Z,20.00
2018-03-31T10:31:26.512Z,20.00
2018-03-31T10:32:31.317Z,20.00
2018-03-31T10:33:35.948Z,20.00
2018-03-31T10:34:40.633Z,20.00
2018-03-31T10:35:45.421Z,20.00
2018-03-31T10:36:50.452Z,20.00
2018-03-31T10:37:55.613Z,20.00
2018-03-31T10:39:00.590Z,20.00
2018-03-31T10:40:05.663Z,20.00
2018-03-31T10:41:10.635Z,20.00
2018-03-31T10:42:15.525Z,20.00
2018-03-31T10:43:20.361Z,20.00
2018-03-31T10:44:25.398Z,20.00
2018-03-31T10:45:30.287Z,20.00
2018-03-31T10:46:35.121Z,20.00
2018-03-31T10:47:39.770Z,20.00
2018-03-31T10:48:45.178Z,20.00
2018-03-31T10:49:50.106Z,20.10
2018-03-31T10:50:54.823Z,20.00
2018-03-31T10:51:59.761Z,20.10
2018-03-31T10:53:04.570Z,20.10
2018-03-31T10:54:09.541Z,20.10
2018-03-31T10:55:14.362Z,20.00
2018-03-31T10:56:19.204Z,20.10
2018-03-31T10:57:23.866Z,20.10
2018-03-31T10:58:28.908Z,20.10
2018-03-31T10:59:33.868Z,20.00
2018-03-31T11:00:38.878Z,20.10
2018-03-31T11:01:43.535Z,20.00
2018-03-31T11:02:48.457Z,20.10
2018-03-31T11:03:53.100Z,20.10
2018-03-31T11:04:57.740Z,20.10
2018-03-31T11:06:02.765Z,20.10
2018-03-31T11:07:07.725Z,20.10
2018-03-31T11:08:12.545Z,20.10
2018-03-31T11:09:17.454Z,20.10
2018-03-31T11:10:22.408Z,20.20
2018-03-31T11:11:27.325Z,20.20
2018-03-31T11:12:32.192Z,20.20
2018-03-31T11:13:37.130Z,20.20
2018-03-31T11:14:42.116Z,20.20
2018-03-31T11:15:47.546Z,20.20
2018-03-31T11:16:52.364Z,20.20
2018-03-31T11:17:57.105Z,20.20
2018-03-31T11:19:02.049Z,20.20
2018-03-31T11:20:06.899Z,20.30
2018-03-31T11:21:11.688Z,20.30
2018-03-31T11:22:16.513Z,20.30
2018-03-31T11:23:21.200Z,20.30
2018-03-31T11:24:25.974Z,20.30
2018-03-31T11:25:30.816Z,20.30
2018-03-31T11:26:35.595Z,20.20
2018-03-31T11:27:40.449Z,20.20
2018-03-31T11:28:45.403Z,20.20
2018-03-31T11:29:50.401Z,20.20
2018-03-31T11:30:55.349Z,20.20
2018-03-31T11:32:00.488Z,20.20
2018-03-31T11:33:06.713Z,20.20
2018-03-31T11:34:11.605Z,20.20
2018-03-31T11:35:16.374Z,20.20
2018-03-31T11:36:21.331Z,20.20
2018-03-31T11:37:26.439Z,20.20
2018-03-31T11:38:31.121Z,20.20
2018-03-31T11:39:36.662Z,20.20
2018-03-31T11:40:41.532Z,20.20
2018-03-31T11:41:46.418Z,20.20
2018-03-31T11:42:51.293Z,20.20
2018-03-31T11:43:56.323Z,20.20
2018-03-31T11:45:01.223Z,20.20
2018-03-31T11:46:06.224Z,20.20
2018-03-31T11:47:10.982Z,20.20
2018-03-31T11:48:15.761Z,20.20
2018-03-31T11:49:20.680Z,20.30
2018-03-31T11:50:25.825Z,20.20
2018-03-31T11:51:30.486Z,20.20
2018-03-31T11:52:35.263Z,20.20
2018-03-31T11:53:40.302Z,20.30
2018-03-31T11:54:45.196Z,20.30
2018-03-31T11:55:50.072Z,20.30
2018-03-31T11:56:54.814Z,20.30
2018-03-31T11:57:59.631Z,20.30
2018-03-31T11:59:04.317Z,20.30
2018-03-31T12:00:09.515Z,20.30
2018-03-31T12:01:14.679Z,20.30
2018-03-31T12:02:19.572Z,20.30
2018-03-31T12:03:24.432Z,20.30
2018-03-31T12:04:29.513Z,20.30
2018-03-31T12:05:34.427Z,20.20
2018-03-31T12:06:39.279Z,20.30
2018-03-31T12:07:43.967Z,20.30
2018-03-31T12:08:48.989Z,20.30
2018-03-31T12:09:54.045Z,20.30
2018-03-31T12:10:58.803Z,20.30
2018-03-31T12:12:03.796Z,20.30
2018-03-31T12:13:10.568Z,20.30
2018-03-31T12:14:15.490Z,20.40
2018-03-31T12:15:20.291Z,20.40
2018-03-31T12:16:25.334Z,20.40
2018-03-31T12:17:30.297Z,20.40
2018-03-31T12:18:35.157Z,20.40
2018-03-31T12:19:39.983Z,20.40
2018-03-31T12:20:44.748Z,20.40
2018-03-31T12:21:49.497Z,20.40
2018-03-31T12:22:54.521Z,20.40
2018-03-31T12:23:59.461Z,20.40
2018-03-31T12:25:04.520Z,20.30
2018-03-31T12:26:09.641Z,20.40
2018-03-31T12:27:14.747Z,20.30
2018-03-31T12:28:19.855Z,20.30
2018-03-31T12:29:24.977Z,20.30
2018-03-31T12:30:29.722Z,20.30
2018-03-31T12:31:34.470Z,20.30
2018-03-31T12:32:39.665Z,20.30
2018-03-31T12:33:44.653Z,20.30
2018-03-31T12:34:49.701Z,20.30
2018-03-31T12:35:54.859Z,20.30
2018-03-31T12:36:59.922Z,20.30
2018-03-31T12:38:04.903Z,20.30
2018-03-31T12:39:09.718Z,20.30
2018-03-31T12:40:14.609Z,20.20
2018-03-31T12:41:19.508Z,20.30
2018-03-31T12:42:24.539Z,20.30
2018-03-31T12:43:29.308Z,20.20
2018-03-31T12:44:34.245Z,20.30
2018-03-31T12:45:39.904Z,20.20
2018-03-31T12:46:44.800Z,20.20
2018-03-31T12:47:49.581Z,20.30
2018-03-31T12:48:54.421Z,20.20
2018-03-31T12:49:59.377Z,20.20
2018-03-31T12:51:04.266Z,20.30
2018-03-31T12:52:09.269Z,20.30
2018-03-31T12:53:14.107Z,20.20
2018-03-31T12:54:18.759Z,20.30
2018-03-31T12:55:23.804Z,20.30
2018-03-31T12:56:28.669Z,20.20
2018-03-31T12:57:33.445Z,20.20
2018-03-31T12:58:38.454Z,20.20
2018-03-31T12:59:43.567Z,20.30
2018-03-31T13:00:48.649Z,20.30
2018-03-31T13:01:53.674Z,20.30
2018-03-31T13:02:58.618Z,20.30
2018-03-31T13:04:03.391Z,20.30
2018-03-31T13:05:08.317Z,20.30
2018-03-31T13:06:13.303Z,20.30
2018-03-31T13:07:18.343Z,20.30
2018-03-31T13:08:24.263Z,20.20
2018-03-31T13:09:29.211Z,20.30
2018-03-31T13:10:34.046Z,20.30
2018-03-31T13:11:40.617Z,20.30
2018-03-31T13:12:45.883Z,20.30
2018-03-31T13:13:50.595Z,20.30
2018-03-31T13:14:55.696Z,20.30
2018-03-31T13:16:00.850Z,20.30
2018-03-31T13:17:05.743Z,20.30
2018-03-31T13:18:10.591Z,20.30
2018-03-31T13:19:15.745Z,20.30
2018-03-31T13:20:20.624Z,20.30
2018-03-31T13:21:25.519Z,20.30
2018-03-31T13:22:30.389Z,20.30
2018-03-31T13:23:35.370Z,20.30
2018-03-31T13:24:40.347Z,20.30
2018-03-31T13:25:45.329Z,20.30
2018-03-31T13:26:50.192Z,20.30
2018-03-31T13:27:55.146Z,20.30
2018-03-31T13:28:59.945Z,20.30
2018-03-31T13:30:04.657Z,20.30
2018-03-31T13:31:09.576Z,20.30
2018-03-31T13:32:14.223Z,20.30
2018-03-31T13:33:19.209Z,20.30
2018-03-31T13:34:24.218Z,20.20
2018-03-31T13:35:29.090Z,20.10
2018-03-31T13:36:33.937Z,19.90
2018-03-31T13:37:38.836Z,19.80
2018-03-31T13:38:44.037Z,19.70
2018-03-31T13:39:49.130Z,19.60
2018-03-31T13:40:54.158Z,19.60
2018-03-31T13:41:59.048Z,19.50
2018-03-31T13:43:04.119Z,19.40
2018-03-31T13:44:09.006Z,19.40
2018-03-31T13:45:14.034Z,19.30
2018-03-31T13:46:19.014Z,19.20
2018-03-31T13:47:23.890Z,19.10
2018-03-31T13:48:28.715Z,19.20
2018-03-31T13:49:33.637Z,19.10
2018-03-31T13:50:38.583Z,19.10
2018-03-31T13:51:43.786Z,19.20
2018-03-31T13:52:48.620Z,19.20
2018-03-31T13:53:53.465Z,19.30
2018-03-31T13:54:58.412Z,19.30
2018-03-31T13:56:03.477Z,19.40